Time;durP1;ratioP1;P1;durP2;ratioP2;P2;SDS_P1;SDS_P2;PMS_P1;PMS_P2;Temp;Humidity;BMP_temperature;BMP_pressure;BME280_temperature;BME280_humidity;BME280_pressure;Samples;Min_cycle;Max_cycle;Signal;HPM_P1;HPM_P2
2022/06/30 00:01:29;;;;;;;11.40;10.40;;;;;;;21.21;100.00;99619.50;4994707;28;20249;-72
2022/06/30 00:03:55;;;;;;;11.27;10.13;;;;;;;21.12;100.00;99616.06;4991533;28;20179;-71
2022/06/30 00:06:20;;;;;;;13.70;10.17;;;;;;;21.12;100.00;99615.22;4996248;28;20195;-71
2022/06/30 00:08:45;;;;;;;11.13;10.20;;;;;;;21.04;100.00;99617.88;4993293;28;20187;-71
2022/06/30 00:11:11;;;;;;;11.07;9.97;;;;;;;21.07;100.00;99617.53;4985215;28;20230;-71
2022/06/30 00:13:37;;;;;;;11.23;10.27;;;;;;;21.00;100.00;99622.59;4999945;28;20328;-70
2022/06/30 00:16:04;;;;;;;11.67;9.73;;;;;;;20.94;100.00;99616.22;4992092;28;20191;-71
2022/06/30 00:18:29;;;;;;;10.90;9.80;;;;;;;20.84;100.00;99612.13;4992041;28;20571;-72
2022/06/30 00:20:55;;;;;;;10.93;9.87;;;;;;;20.72;100.00;99612.44;4984613;28;20327;-72
2022/06/30 00:23:20;;;;;;;10.83;9.93;;;;;;;20.60;100.00;99611.91;5001868;28;20230;-72
2022/06/30 00:25:45;;;;;;;10.93;9.87;;;;;;;20.55;100.00;99613.38;4991522;28;20231;-72
2022/06/30 00:28:11;;;;;;;9.93;8.90;;;;;;;20.56;100.00;99615.00;4992040;28;20635;-72
2022/06/30 00:30:36;;;;;;;11.30;10.17;;;;;;;20.41;100.00;99620.03;4984420;28;20330;-71
2022/06/30 00:33:01;;;;;;;10.73;9.70;;;;;;;20.47;100.00;99622.00;4990706;28;20196;-71
2022/06/30 00:35:27;;;;;;;11.83;10.63;;;;;;;20.42;100.00;99625.09;4987347;28;20196;-71
2022/06/30 00:37:52;;;;;;;11.10;10.10;;;;;;;20.41;100.00;99627.88;5005028;28;20411;-71
2022/06/30 00:40:18;;;;;;;10.07;9.17;;;;;;;20.38;100.00;99620.34;4985067;28;20183;-71
2022/06/30 00:42:43;;;;;;;11.23;10.23;;;;;;;20.42;100.00;99617.25;4991597;28;20218;-71
2022/06/30 00:45:09;;;;;;;11.60;9.13;;;;;;;20.42;100.00;99617.25;5002996;28;20195;-71
2022/06/30 00:47:34;;;;;;;10.30;9.40;;;;;;;20.45;100.00;99610.91;4992871;28;20178;-71
2022/06/30 00:50:01;;;;;;;10.97;10.07;;;;;;;20.47;100.00;99608.94;4992241;28;20631;-71
2022/06/30 00:52:29;;;;;;;10.93;10.07;;;;;;;20.42;100.00;99612.03;4998288;28;20655;-71
2022/06/30 00:54:55;;;;;;;11.17;10.27;;;;;;;20.50;100.00;99606.00;4993554;28;20190;-70
2022/06/30 00:57:23;;;;;;;12.10;10.90;;;;;;;20.37;100.00;99618.72;4991364;28;20280;-70
2022/06/30 01:03:10;;;;;;;11.53;10.50;;;;;;;20.29;100.00;99604.66;4980672;28;20226;-71
2022/06/30 01:05:36;;;;;;;10.93;9.93;;;;;;;20.21;100.00;99606.44;4993063;28;20179;-71
2022/06/30 01:08:03;;;;;;;11.30;10.40;;;;;;;20.23;100.00;99607.91;4991437;28;20186;-71
2022/06/30 01:13:13;;;;;;;11.23;10.30;;;;;;;20.13;100.00;99600.22;5002158;28;20281;-72
2022/06/30 01:15:38;;;;;;;12.10;11.00;;;;;;;20.10;100.00;99610.16;4991612;28;20626;-72
2022/06/30 01:18:09;;;;;;;12.43;11.13;;;;;;;19.93;100.00;99606.66;4991140;28;20592;-72
2022/06/30 01:20:34;;;;;;;12.87;11.20;;;;;;;19.92;100.00;99612.84;4983370;28;20242;-72
2022/06/30 01:23:02;;;;;;;11.67;10.67;;;;;;;19.94;100.00;99614.31;5003135;28;20215;-71
2022/06/30 01:25:27;;;;;;;11.67;10.67;;;;;;;19.91;100.00;99609.41;4990658;28;20287;-71
2022/06/30 01:27:54;;;;;;;12.47;11.27;;;;;;;19.87;100.00;99607.28;4992136;28;20624;-72
2022/06/30 01:30:20;;;;;;;11.33;10.23;;;;;;;19.83;100.00;99612.81;4972179;28;20636;-71
2022/06/30 01:32:46;;;;;;;11.23;10.20;;;;;;;19.81;100.00;99617.34;4986239;28;20259;-71
2022/06/30 01:35:11;;;;;;;13.10;10.40;;;;;;;19.82;100.00;99611.16;4992512;28;20268;-72
2022/06/30 01:37:44;;;;;;;11.90;10.90;;;;;;;19.76;100.00;99609.16;4991958;28;20186;-71
2022/06/30 01:40:10;;;;;;;11.47;10.43;;;;;;;19.79;100.00;99610.63;4981247;28;20666;-71
2022/06/30 01:42:35;;;;;;;13.10;11.77;;;;;;;19.67;100.00;99610.91;4990796;28;20199;-70
2022/06/30 01:45:01;;;;;;;11.43;10.43;;;;;;;19.72;100.00;99609.63;5000672;28;20183;-71
2022/06/30 01:47:26;;;;;;;11.63;10.53;;;;;;;19.71;100.00;99613.19;4990653;28;20176;-74
2022/06/30 01:49:51;;;;;;;12.00;10.80;;;;;;;19.59;100.00;99613.47;4991452;28;20191;-71
2022/06/30 01:52:17;;;;;;;11.93;10.73;;;;;;;19.58;100.00;99605.78;4982167;28;20596;-71
2022/06/30 01:54:42;;;;;;;11.83;10.73;;;;;;;19.60;100.00;99616.91;4993859;28;20270;-71
2022/06/30 01:57:07;;;;;;;11.53;10.63;;;;;;;19.56;100.00;99618.16;4991941;28;20172;-71
2022/06/30 01:59:32;;;;;;;12.63;11.43;;;;;;;19.57;100.00;99619.81;4994892;28;20193;-71
2022/06/30 02:01:57;;;;;;;12.73;11.43;;;;;;;19.54;100.00;99620.94;4983390;28;20242;-71
2022/06/30 02:07:07;;;;;;;12.27;11.07;;;;;;;19.56;100.00;99619.00;4993824;28;20193;-71
2022/06/30 02:09:32;;;;;;;12.27;11.00;;;;;;;19.44;100.00;99622.84;4990039;28;20183;-71
2022/06/30 02:14:49;;;;;;;11.87;10.83;;;;;;;19.40;100.00;99626.69;4951016;29;20196;-71
2022/06/30 02:17:15;;;;;;;11.73;10.60;;;;;;;19.22;100.00;99619.72;4932626;29;20205;-72
2022/06/30 02:19:40;;;;;;;11.07;10.07;;;;;;;19.21;100.00;99625.91;4930961;29;20304;-70
2022/06/30 02:22:06;;;;;;;12.47;11.37;;;;;;;19.19;100.00;99620.84;4915129;28;20233;-70
2022/06/30 02:24:31;;;;;;;11.33;10.20;;;;;;;18.98;100.00;99628.19;4949653;29;20283;-70
2022/06/30 02:26:56;;;;;;;11.47;10.40;;;;;;;19.09;100.00;99622.75;4952965;28;20200;-70
2022/06/30 02:29:22;;;;;;;11.50;10.40;;;;;;;19.21;100.00;99619.88;4948989;29;20252;-70
2022/06/30 02:31:47;;;;;;;12.00;9.83;;;;;;;19.20;100.00;99619.06;4925205;29;20589;-71
2022/06/30 02:34:12;;;;;;;11.43;10.47;;;;;;;19.23;100.00;99610.13;4949273;29;20205;-72
2022/06/30 02:36:38;;;;;;;10.37;9.53;;;;;;;19.23;100.00;99613.56;4954295;29;20189;-70
2022/06/30 02:39:03;;;;;;;10.83;10.03;;;;;;;19.23;100.00;99610.13;4954017;29;20681;-70
2022/06/30 02:41:28;;;;;;;10.63;9.63;;;;;;;19.23;100.00;99604.94;4924982;29;20588;-71
2022/06/30 02:43:54;;;;;;;10.97;9.90;;;;;;;19.21;100.00;99602.44;4942221;28;20223;-71
2022/06/30 02:46:19;;;;;;;11.57;10.37;;;;;;;19.17;100.00;99607.16;4937913;29;20201;-70
2022/06/30 02:48:44;;;;;;;10.53;9.50;;;;;;;19.18;100.00;99605.38;4953456;29;20220;-63
2022/06/30 02:51:10;;;;;;;10.73;9.83;;;;;;;19.17;100.00;99607.16;4962398;28;20694;-63
2022/06/30 02:53:35;;;;;;;11.33;10.23;;;;;;;19.21;100.00;99606.84;4999114;28;20241;-63
2022/06/30 02:56:01;;;;;;;11.70;10.50;;;;;;;19.35;100.00;99604.50;4988971;28;20201;-63
2022/06/30 02:58:26;;;;;;;11.63;10.53;;;;;;;19.35;100.00;99601.91;5000562;28;20183;-63
2022/06/30 03:00:51;;;;;;;11.80;10.70;;;;;;;19.23;100.00;99597.91;4973742;28;20305;-62
2022/06/30 03:03:17;;;;;;;11.97;10.83;;;;;;;19.16;100.00;99592.50;4994057;28;20202;-63
2022/06/30 03:05:42;;;;;;;11.67;10.57;;;;;;;19.00;100.00;99592.34;4996843;28;20230;-63
2022/06/30 03:08:07;;;;;;;11.07;10.07;;;;;;;18.91;100.00;99601.09;4995276;28;20266;-64
2022/06/30 03:10:33;;;;;;;11.83;10.60;;;;;;;18.92;100.00;99597.50;4988397;28;20222;-64
2022/06/30 03:12:58;;;;;;;12.87;10.13;;;;;;;18.74;100.00;99606.09;5005976;28;20187;-63
2022/06/30 03:15:23;;;;;;;11.23;9.40;;;;;;;18.81;100.00;99606.34;4987328;28;20257;-63
2022/06/30 03:17:49;;;;;;;12.27;10.60;;;;;;;18.87;100.00;99600.53;4992783;28;20187;-63
2022/06/30 03:20:14;;;;;;;11.33;9.70;;;;;;;18.95;100.00;99600.66;4984294;28;20186;-63
2022/06/30 03:22:39;;;;;;;10.47;9.33;;;;;;;18.99;100.00;99599.38;5008111;28;20557;-64
2022/06/30 03:25:05;;;;;;;10.50;9.60;;;;;;;18.82;100.00;99603.59;4994266;28;20273;-64
2022/06/30 03:27:30;;;;;;;10.87;9.83;;;;;;;18.89;100.00;99596.00;4993801;28;20539;-62
2022/06/30 03:29:55;;;;;;;10.93;10.03;;;;;;;18.83;100.00;99601.81;4987846;28;20199;-63
2022/06/30 03:32:20;;;;;;;12.33;11.10;;;;;;;18.83;100.00;99604.41;4963124;28;20219;-63
2022/06/30 03:34:46;;;;;;;10.77;9.87;;;;;;;18.77;100.00;99603.22;4994261;28;20215;-63
2022/06/30 03:37:11;;;;;;;10.70;9.63;;;;;;;18.87;100.00;99606.56;4992422;28;20190;-64
2022/06/30 03:39:36;;;;;;;11.00;10.00;;;;;;;18.90;100.00;99604.63;4993264;28;20186;-62
2022/06/30 03:42:02;;;;;;;12.00;10.40;;;;;;;18.98;100.00;99600.31;4999311;28;20230;-63
2022/06/30 03:44:27;;;;;;;10.60;9.73;;;;;;;18.91;100.00;99604.50;4990165;28;20195;-62
2022/06/30 03:46:52;;;;;;;11.93;10.70;;;;;;;18.89;100.00;99598.59;4988646;28;20184;-62
2022/06/30 03:49:17;;;;;;;11.33;10.43;;;;;;;18.96;100.00;99606.66;5008804;28;20635;-63
2022/06/30 03:51:43;;;;;;;11.67;10.47;;;;;;;18.87;100.00;99603.13;4996273;28;20261;-64
2022/06/30 03:54:08;;;;;;;12.57;11.30;;;;;;;18.83;100.00;99601.81;5009334;28;20560;-63
2022/06/30 03:56:34;;;;;;;12.57;10.63;;;;;;;18.88;100.00;99610.81;4994848;28;20265;-62
2022/06/30 03:58:59;;;;;;;10.53;9.63;;;;;;;18.98;100.00;99608.16;4998900;28;20184;-62
2022/06/30 04:01:24;;;;;;;12.30;10.73;;;;;;;18.95;100.00;99610.22;4985277;28;20596;-65
2022/06/30 04:03:50;;;;;;;11.23;9.97;;;;;;;19.08;100.00;99608.06;4998386;28;20286;-63
2022/06/30 04:06:15;;;;;;;11.60;10.50;;;;;;;19.07;100.00;99606.41;5011201;28;20188;-63
2022/06/30 04:08:41;;;;;;;12.37;10.40;;;;;;;18.94;100.00;99619.00;4993194;28;20219;-63
2022/06/30 04:11:06;;;;;;;11.70;10.50;;;;;;;18.94;100.00;99612.03;4991604;28;20765;-63
2022/06/30 04:13:31;;;;;;;11.23;10.23;;;;;;;18.99;100.00;99612.41;5000737;28;20175;-64
2022/06/30 04:15:57;;;;;;;12.00;10.70;;;;;;;19.10;100.00;99606.13;4993202;28;20654;-63
2022/06/30 04:18:22;;;;;;;11.13;10.13;;;;;;;19.10;100.00;99610.50;4993639;28;20191;-63
2022/06/30 04:20:47;;;;;;;11.23;9.97;;;;;;;19.14;100.00;99602.25;4988534;28;20304;-64
2022/06/30 04:23:13;;;;;;;10.60;9.60;;;;;;;19.18;100.00;99602.75;5002236;28;20242;-64
2022/06/30 04:25:38;;;;;;;11.77;9.50;;;;;;;19.25;100.00;99598.59;4987486;28;20312;-64
2022/06/30 04:28:04;;;;;;;9.77;8.77;;;;;;;19.25;100.00;99597.75;4993456;28;20601;-62
2022/06/30 04:33:13;;;;;;;10.07;9.17;;;;;;;19.43;100.00;99592.50;5002784;28;20211;-63
2022/06/30 04:35:39;;;;;;;9.93;8.93;;;;;;;19.44;100.00;99594.16;4992919;28;20563;-64
2022/06/30 04:38:04;;;;;;;9.60;8.83;;;;;;;19.55;100.00;99599.09;4993151;28;20263;-63
2022/06/30 04:43:15;;;;;;;11.30;9.30;;;;;;;19.39;100.00;99594.59;5003416;28;20202;-63
2022/06/30 04:45:40;;;;;;;9.80;8.80;;;;;;;19.58;100.00;99598.78;4998876;28;20183;-63
2022/06/30 04:48:06;;;;;;;12.50;8.90;;;;;;;19.60;100.00;99598.63;4993012;28;20193;-63
2022/06/30 04:50:31;;;;;;;11.50;9.67;;;;;;;19.46;100.00;99595.63;4985817;28;20230;-64
2022/06/30 04:52:56;;;;;;;9.10;8.17;;;;;;;19.61;100.00;99590.66;5007804;28;20185;-64
2022/06/30 04:55:21;;;;;;;9.57;8.60;;;;;;;19.80;100.00;99596.63;5001719;28;20175;-64
2022/06/30 04:57:47;;;;;;;9.47;8.47;;;;;;;19.93;100.00;99591.81;4993348;28;20623;-64
2022/06/30 05:00:12;;;;;;;9.70;8.77;;;;;;;19.95;100.00;99602.09;4987694;28;20180;-63
2022/06/30 05:02:38;;;;;;;9.63;8.77;;;;;;;20.21;100.00;99599.41;5006600;28;20650;-64
2022/06/30 05:05:03;;;;;;;9.90;8.93;;;;;;;20.53;100.00;99597.84;4993744;28;20254;-62
2022/06/30 05:07:29;;;;;;;11.17;8.60;;;;;;;20.61;100.00;99595.25;4993537;28;20180;-62
2022/06/30 05:09:54;;;;;;;10.93;8.07;;;;;;;20.64;100.00;99596.75;4992285;28;20207;-62
2022/06/30 05:12:19;;;;;;;9.50;8.53;;;;;;;20.83;100.00;99595.63;4997470;28;20561;-63
2022/06/30 05:14:45;;;;;;;9.60;8.57;;;;;;;20.66;100.00;99601.78;4993091;28;20194;-63
2022/06/30 05:17:10;;;;;;;15.03;8.40;;;;;;;20.80;100.00;99595.94;4992994;28;20194;-62
2022/06/30 05:19:36;;;;;;;8.63;7.97;;;;;;;20.95;100.00;99603.97;4992119;28;20406;-62
2022/06/30 05:22:06;;;;;;;9.93;9.00;;;;;;;21.13;100.00;99603.78;4996628;28;20230;-62
2022/06/30 05:27:16;;;;;;;9.27;8.33;;;;;;;21.33;100.00;99596.41;4992822;28;20222;-62
2022/06/30 05:29:41;;;;;;;10.17;7.80;;;;;;;21.42;99.19;99595.44;4991512;28;20202;-63
2022/06/30 05:32:07;;;;;;;8.97;8.07;;;;;;;21.71;98.33;99588.03;4997613;28;20225;-62
2022/06/30 05:34:33;;;;;;;9.57;7.83;;;;;;;21.90;96.00;99585.00;4990689;28;20200;-62
2022/06/30 05:36:58;;;;;;;8.53;7.73;;;;;;;22.09;93.42;99580.31;4992356;28;20183;-63
2022/06/30 05:39:24;;;;;;;11.03;8.50;;;;;;;22.18;93.26;99588.97;4991848;28;20620;-64
2022/06/30 05:41:49;;;;;;;8.93;8.23;;;;;;;22.30;91.30;99592.00;4995592;28;20720;-63
2022/06/30 05:44:14;;;;;;;11.53;8.60;;;;;;;22.51;89.87;99587.00;5001521;28;20229;-63
2022/06/30 05:46:40;;;;;;;9.97;8.00;;;;;;;22.59;90.17;99594.00;4992153;28;20175;-63
2022/06/30 05:49:06;;;;;;;9.10;8.20;;;;;;;22.71;89.31;99584.72;4991676;28;20187;-64
2022/06/30 05:51:32;;;;;;;9.70;8.03;;;;;;;22.87;89.72;99586.41;4993260;28;20309;-63
2022/06/30 05:53:57;;;;;;;9.47;8.57;;;;;;;22.89;90.42;99596.72;4997291;28;20275;-60
2022/06/30 05:56:22;;;;;;;8.53;7.83;;;;;;;;;;4985101;28;20684;-61
2022/06/30 05:58:48;;;;;;;11.13;9.00;;;;;;;23.29;87.95;99597.34;4988247;28;20186;-61
2022/06/30 06:01:13;;;;;;;9.47;8.07;;;;;;;23.86;84.62;99603.00;4982489;28;20228;-62
2022/06/30 06:03:38;;;;;;;9.43;7.50;;;;;;;24.28;81.36;99601.50;4982335;28;20229;-62
2022/06/30 06:06:03;;;;;;;12.03;9.30;;;;;;;24.35;79.73;99598.94;4993065;28;20187;-62
2022/06/30 06:08:29;;;;;;;10.70;9.60;;;;;;;24.40;81.90;99596.56;4974703;28;20192;-62
2022/06/30 06:10:54;;;;;;;13.27;9.97;;;;;;;24.38;82.39;99597.75;4980667;28;20238;-61
2022/06/30 06:13:19;;;;;;;10.27;9.17;;;;;;;24.77;80.62;99596.53;4993182;28;20187;-62
2022/06/30 06:15:45;;;;;;;10.27;9.23;;;;;;;25.64;74.57;99602.44;4991790;28;20320;-62
2022/06/30 06:18:11;;;;;;;11.52;8.25;;;;;;;26.21;70.03;99597.84;4992040;28;20184;-62
2022/06/30 06:20:36;;;;;;;13.40;7.72;;;;;;;27.50;63.60;99596.88;4985688;28;20301;-64
2022/06/30 06:23:01;;;;;;;9.70;8.65;;;;;;;27.96;59.53;99601.22;4974518;28;20214;-63
2022/06/30 06:25:26;;;;;;;9.05;7.95;;;;;;;28.66;56.36;99608.34;4976002;28;20224;-63
2022/06/30 06:30:36;;;;;;;8.60;7.70;;;;;;;28.73;55.77;99596.94;4986594;28;20607;-63
2022/06/30 06:33:01;;;;;;;10.38;9.38;;;;;;;27.86;59.62;99595.56;4990697;28;20207;-62
2022/06/30 06:35:27;;;;;;;10.02;8.02;;;;;;;28.25;59.59;99599.06;4993710;28;20195;-64
2022/06/30 06:37:52;;;;;;;8.88;8.00;;;;;;;28.88;56.20;99596.63;4993495;28;20596;-62
2022/06/30 06:40:17;;;;;;;9.30;8.40;;;;;;;28.65;57.02;99606.75;4985958;28;20194;-62
2022/06/30 06:42:43;;;;;;;11.82;8.07;;;;;;;29.02;54.54;99603.41;4994021;28;20228;-61
2022/06/30 06:45:08;;;;;;;9.60;8.60;;;;;;;30.34;50.22;99601.34;4992550;28;20188;-62
2022/06/30 06:47:33;;;;;;;8.73;7.95;;;;;;;29.41;52.00;99612.03;4982574;28;20180;-62
2022/06/30 06:49:59;;;;;;;11.30;8.23;;;;;;;29.75;52.46;99611.69;4984041;28;20215;-62
2022/06/30 06:52:26;;;;;;;9.77;8.20;;;;;;;30.24;49.88;99612.50;4992749;28;20238;-63
2022/06/30 06:54:52;;;;;;;8.80;8.00;;;;;;;29.01;54.23;99607.09;4978925;28;20247;-62
2022/06/30 06:57:17;;;;;;;8.63;7.78;;;;;;;29.36;52.67;99611.06;4993700;28;20192;-61
2022/06/30 06:59:42;;;;;;;10.93;7.97;;;;;;;30.24;49.13;99609.03;4995145;28;20264;-63
2022/06/30 07:02:07;;;;;;;8.40;7.53;;;;;;;30.68;47.64;99608.84;4978545;28;20674;-62
2022/06/30 07:04:33;;;;;;;11.57;7.72;;;;;;;31.33;45.58;99607.97;4992770;28;20179;-62
2022/06/30 07:06:58;;;;;;;10.40;9.15;;;;;;;31.16;46.09;99610.50;4993271;28;20202;-62
2022/06/30 07:09:24;;;;;;;9.35;7.75;;;;;;;30.72;46.29;99617.94;4975080;28;20211;-62
2022/06/30 07:11:49;;;;;;;9.57;7.50;;;;;;;31.74;44.02;99617.84;4979131;28;20257;-62
2022/06/30 07:14:14;;;;;;;8.65;7.40;;;;;;;30.82;46.78;99612.06;4988092;28;20180;-62
2022/06/30 07:16:39;;;;;;;8.23;7.38;;;;;;;31.41;45.47;99612.09;4992444;28;20215;-62
2022/06/30 07:19:05;;;;;;;9.43;8.32;;;;;;;31.26;44.99;99607.28;4986079;28;20557;-63
2022/06/30 07:21:30;;;;;;;9.07;7.38;;;;;;;31.62;44.83;99615.16;4974817;28;20270;-63
2022/06/30 07:23:55;;;;;;;8.00;7.15;;;;;;;32.80;42.90;99613.91;4983288;28;20196;-62
2022/06/30 07:26:21;;;;;;;9.93;9.02;;;;;;;32.63;40.74;99624.53;5003161;28;20545;-63
2022/06/30 07:28:47;;;;;;;9.07;7.18;;;;;;;33.35;40.21;99614.97;4983927;28;20171;-62
2022/06/30 07:31:13;;;;;;;9.48;8.60;;;;;;;32.88;40.78;99618.00;4967360;28;20223;-66
2022/06/30 07:33:40;;;;;;;9.10;7.40;;;;;;;33.52;38.86;99614.13;4983391;28;20229;-63
2022/06/30 07:36:06;;;;;;;12.75;7.40;;;;;;;33.91;38.08;99614.88;4978274;28;20184;-61
2022/06/30 07:38:31;;;;;;;8.80;7.72;;;;;;;34.88;36.53;99621.34;4974858;28;20658;-61
2022/06/30 07:40:56;;;;;;;8.25;7.28;;;;;;;33.77;37.71;99626.94;4979696;28;20737;-63
2022/06/30 07:43:22;;;;;;;7.80;7.03;;;;;;;34.72;36.84;99626.56;4995170;28;20211;-61
2022/06/30 07:45:48;;;;;;;11.63;7.97;;;;;;;34.83;35.85;99627.47;4987759;28;20180;-62
2022/06/30 07:48:13;;;;;;;9.65;8.07;;;;;;;33.45;39.25;99624.97;4974766;28;20583;-61
2022/06/30 07:50:39;;;;;;;11.52;7.20;;;;;;;34.22;38.95;99625.03;4968684;28;20318;-60
2022/06/30 07:53:04;;;;;;;14.43;7.63;;;;;;;35.25;35.72;99631.19;4976849;28;20572;-60
2022/06/30 07:55:30;;;;;;;8.88;7.95;;;;;;;35.44;35.03;99631.63;4990344;28;20179;-60
2022/06/30 07:57:55;;;;;;;12.15;8.30;;;;;;;35.24;35.23;99626.91;5008507;28;20198;-62
2022/06/30 08:00:24;;;;;;;10.57;7.35;;;;;;;35.81;34.45;99621.84;4968264;28;20640;-62
2022/06/30 08:02:50;;;;;;;9.15;8.07;;;;;;;34.91;36.03;99618.19;4990039;28;20577;-60
2022/06/30 08:05:15;;;;;;;11.07;8.07;;;;;;;34.42;36.92;99617.25;4990555;28;20183;-62
2022/06/30 08:07:41;;;;;;;11.43;7.97;;;;;;;34.17;37.28;99617.78;4993696;28;20238;-61
2022/06/30 08:10:07;;;;;;;11.98;8.07;;;;;;;36.15;34.07;99603.47;4984110;28;20646;-61
2022/06/30 08:12:33;;;;;;;8.05;7.25;;;;;;;36.84;32.77;99611.22;5005177;28;20191;-62
2022/06/30 08:14:59;;;;;;;10.43;9.43;;;;;;;36.50;32.93;99614.50;4982527;28;20198;-62
2022/06/30 08:17:25;;;;;;;12.52;7.50;;;;;;;37.41;32.14;99614.63;4980944;28;20561;-62
2022/06/30 08:19:50;;;;;;;10.45;7.38;;;;;;;36.21;33.42;99604.28;4981720;28;20487;-61
2022/06/30 08:22:15;;;;;;;7.60;6.78;;;;;;;37.06;32.69;99610.16;4998091;28;20245;-61
2022/06/30 08:24:41;;;;;;;10.07;6.97;;;;;;;37.05;32.41;99608.56;4973470;28;20231;-61
2022/06/30 08:27:06;;;;;;;12.07;7.97;;;;;;;36.45;33.33;99606.47;4986697;28;20218;-59
2022/06/30 08:29:32;;;;;;;7.78;7.07;;;;;;;37.28;31.47;99604.47;4985544;28;20180;-60
2022/06/30 08:31:59;;;;;;;13.63;8.07;;;;;;;38.02;30.20;99607.34;4988878;28;20243;-63
2022/06/30 08:34:24;;;;;;;8.13;6.57;;;;;;;38.54;30.12;99601.59;4976939;28;20208;-61
2022/06/30 08:36:49;;;;;;;10.40;7.05;;;;;;;38.41;29.80;99601.16;4974356;28;20655;-61
2022/06/30 08:42:02;;;;;;;8.77;7.30;;;;;;;38.42;29.42;99605.47;4987293;28;20589;-61
2022/06/30 08:44:30;;;;;;;8.18;6.65;;;;;;;37.11;32.03;99605.56;4987546;28;20661;-61
2022/06/30 08:46:58;;;;;;;13.27;7.72;;;;;;;36.64;31.86;99598.69;4991280;28;20187;-62
2022/06/30 08:49:23;;;;;;;9.45;7.13;;;;;;;35.53;33.78;99597.94;4978784;28;20596;-62
2022/06/30 08:51:51;;;;;;;8.50;6.70;;;;;;;36.90;32.27;99601.34;4976884;28;20734;-60
2022/06/30 08:54:19;;;;;;;7.28;6.57;;;;;;;36.07;32.21;99590.59;4981153;28;20584;-61
2022/06/30 08:56:46;;;;;;;10.05;6.47;;;;;;;37.46;31.04;99598.50;4987657;28;20192;-60
2022/06/30 08:59:11;;;;;;;6.43;5.88;;;;;;;38.68;28.71;99597.16;4998493;28;20187;-61
2022/06/30 09:01:37;;;;;;;13.45;6.45;;;;;;;38.61;29.59;99595.91;4983220;28;20237;-62
2022/06/30 09:04:03;;;;;;;7.47;5.35;;;;;;;39.07;28.32;99595.44;4983459;28;20192;-62
2022/06/30 09:06:28;;;;;;;7.72;6.57;;;;;;;38.74;27.73;99593.34;4979901;28;20632;-61
2022/06/30 09:08:54;;;;;;;6.40;5.68;;;;;;;37.85;28.93;99586.25;4977695;28;20191;-61
2022/06/30 09:11:19;;;;;;;6.90;6.20;;;;;;;37.40;29.59;99585.38;4977740;28;20231;-61
2022/06/30 09:13:50;;;;;;;6.70;5.50;;;;;;;37.88;28.65;99576.84;4992907;28;20201;-62
2022/06/30 09:16:17;;;;;;;6.80;5.20;;;;;;;37.61;28.43;99578.03;4988807;28;20184;-66
2022/06/30 09:18:43;;;;;;;10.63;5.68;;;;;;;35.79;31.83;99575.84;4990361;28;20188;-64
2022/06/30 09:21:17;;;;;;;7.47;5.00;;;;;;;36.41;31.23;99575.91;4976762;28;20238;-61
2022/06/30 09:23:44;;;;;;;7.13;5.20;;;;;;;37.75;29.45;99562.16;4980935;28;20188;-64
2022/06/30 09:26:19;;;;;;;5.45;4.63;;;;;;;40.52;25.25;99569.22;4989588;28;20282;-63
2022/06/30 09:28:47;;;;;;;6.35;4.60;;;;;;;40.44;23.86;99570.66;4988575;28;20193;-66
2022/06/30 09:31:14;;;;;;;4.53;4.15;;;;;;;38.92;25.88;99576.81;4985949;28;20271;-64
2022/06/30 09:33:47;;;;;;;4.57;4.10;;;;;;;38.00;27.76;99561.19;4991704;28;20353;-63
2022/06/30 09:36:24;;;;;;;6.43;3.47;;;;;;;38.71;23.89;99572.41;4987893;28;20644;-63
2022/06/30 09:39:02;;;;;;;5.85;3.15;;;;;;;38.84;24.13;99570.97;4989428;28;20356;-64
2022/06/30 09:41:32;;;;;;;3.58;2.75;;;;;;;37.83;25.26;99556.19;4993383;28;20310;-64
2022/06/30 09:43:58;;;;;;;5.60;3.47;;;;;;;39.42;24.09;99550.38;4990532;28;20550;-64
2022/06/30 09:46:24;;;;;;;5.65;3.47;;;;;;;41.03;21.43;99565.56;4975760;28;20187;-64
2022/06/30 09:48:49;;;;;;;5.70;3.53;;;;;;;41.86;20.94;99556.50;4979575;28;20230;-64
2022/06/30 09:51:15;;;;;;;3.22;2.92;;;;;;;41.38;20.70;99559.72;4976256;28;20383;-64
2022/06/30 09:53:41;;;;;;;3.35;2.42;;;;;;;41.86;18.41;99553.81;4992002;28;20188;-62
2022/06/30 09:56:11;;;;;;;4.40;2.78;;;;;;;42.42;18.26;99548.94;4981819;28;20191;-63
2022/06/30 09:58:42;;;;;;;5.63;2.50;;;;;;;42.52;17.72;99561.34;4997784;28;20489;-62
2022/06/30 10:01:09;;;;;;;3.97;2.03;;;;;;;42.16;15.94;99553.38;4991155;28;20230;-64
2022/06/30 10:03:44;;;;;;;2.72;2.20;;;;;;;41.94;16.95;99549.56;4998631;28;20198;-64
2022/06/30 10:06:12;;;;;;;4.68;3.00;;;;;;;39.98;21.08;99545.28;4994413;28;20211;-64
2022/06/30 10:08:38;;;;;;;6.00;2.85;;;;;;;39.93;21.05;99538.13;4991885;28;20183;-64
2022/06/30 10:11:05;;;;;;;2.75;2.40;;;;;;;40.80;19.68;99548.50;4988081;28;20360;-64
2022/06/30 10:13:35;;;;;;;4.43;2.42;;;;;;;41.56;19.75;99542.59;4998716;28;20187;-64
2022/06/30 10:16:03;;;;;;;3.55;2.08;;;;;;;39.51;20.58;99540.59;4992263;28;20549;-64
2022/06/30 10:18:30;;;;;;;3.03;2.50;;;;;;;37.98;21.69;99541.06;4980972;28;20577;-63
2022/06/30 10:20:56;;;;;;;5.10;2.42;;;;;;;40.01;20.18;99539.31;4982414;28;20253;-62
2022/06/30 10:23:23;;;;;;;4.50;2.30;;;;;;;41.23;17.56;99545.47;4981042;28;20204;-63
2022/06/30 10:25:50;;;;;;;2.63;2.20;;;;;;;41.39;17.48;99547.84;4970715;28;20219;-63
2022/06/30 10:28:21;;;;;;;6.38;2.60;;;;;;;41.36;18.41;99546.53;4978217;28;20180;-63
2022/06/30 10:30:53;;;;;;;6.85;2.30;;;;;;;41.21;18.86;99541.47;4968659;28;20234;-62
2022/06/30 10:33:24;;;;;;;7.28;2.75;;;;;;;43.21;17.84;99538.38;4987056;28;20576;-63
2022/06/30 10:36:07;;;;;;;5.65;2.25;;;;;;;42.01;17.49;99536.44;4987208;28;20595;-62
2022/06/30 10:38:45;;;;;;;4.40;2.40;;;;;;;42.39;18.55;99537.94;4972355;28;20184;-66
2022/06/30 10:41:15;;;;;;;3.70;2.70;;;;;;;41.26;17.83;99527.91;4974246;28;20218;-64
2022/06/30 10:44:03;;;;;;;4.82;2.60;;;;;;;39.91;19.12;99524.13;4997662;28;20277;-63
2022/06/30 10:46:29;;;;;;;5.85;2.85;;;;;;;38.58;21.38;99520.16;4983163;28;20271;-62
2022/06/30 10:48:54;;;;;;;3.65;2.17;;;;;;;37.37;22.75;99516.22;4983465;28;20192;-63
2022/06/30 10:51:22;;;;;;;5.85;2.58;;;;;;;33.51;25.59;99514.66;4993405;28;20226;-63
2022/06/30 10:53:50;;;;;;;5.75;2.75;;;;;;;32.94;27.23;99505.97;4996974;28;20282;-64
2022/06/30 10:56:15;;;;;;;3.42;2.95;;;;;;;32.55;26.90;99505.94;4994853;28;20258;-66
2022/06/30 10:59:10;;;;;;;4.03;2.78;;;;;;;31.44;28.88;99494.69;4990522;28;20183;-62
2022/06/30 11:01:35;;;;;;;6.28;2.70;;;;;;;32.08;30.06;99504.38;4966561;28;20259;-63
2022/06/30 11:04:02;;;;;;;5.18;2.92;;;;;;;32.22;29.46;99502.25;4979216;28;20267;-64
2022/06/30 11:06:57;;;;;;;3.78;2.70;;;;;;;32.28;30.18;99503.13;4980150;28;20702;-64
2022/06/30 11:09:49;;;;;;;4.25;2.65;;;;;;;31.59;28.85;99496.84;4981952;28;20600;-61
2022/06/30 11:12:42;;;;;;;6.10;2.97;;;;;;;31.59;29.25;99498.69;4985851;28;20233;-63
2022/06/30 11:15:08;;;;;;;2.83;2.33;;;;;;;31.81;30.48;99488.22;4985045;28;20495;-62
2022/06/30 11:17:39;;;;;;;5.13;2.80;;;;;;;32.65;29.00;99484.00;5003074;28;20888;-69
2022/06/30 11:20:10;;;;;;;5.07;3.13;;;;;;;32.81;30.91;99483.16;4984845;28;20191;-64
2022/06/30 11:22:36;;;;;;;5.78;3.15;;;;;;;32.96;30.71;99485.22;4993137;28;20203;-67
2022/06/30 11:25:05;;;;;;;3.90;2.75;;;;;;;32.17;28.63;99486.16;4993502;28;20246;-63
2022/06/30 11:27:36;;;;;;;8.30;3.17;;;;;;;31.90;29.27;99476.16;4992464;28;20195;-65
2022/06/30 11:30:04;;;;;;;2.65;2.42;;;;;;;32.00;29.80;99479.00;4992031;28;20222;-69
2022/06/30 11:32:30;;;;;;;5.40;2.60;;;;;;;31.85;29.55;99484.03;4974296;28;20673;-67
2022/06/30 11:34:56;;;;;;;3.42;2.28;;;;;;;32.19;29.80;99479.59;4991169;28;20207;-64
2022/06/30 11:37:27;;;;;;;4.82;2.53;;;;;;;32.62;28.85;99477.31;4977946;28;20658;-61
2022/06/30 11:40:00;;;;;;;4.28;2.35;;;;;;;32.06;29.14;99477.22;4979056;28;20192;-68
2022/06/30 11:42:26;;;;;;;4.40;2.35;;;;;;;31.75;29.60;99474.03;4992189;28;20228;-60
2022/06/30 11:44:52;;;;;;;6.53;2.17;;;;;;;31.23;29.56;99474.91;4981144;28;20199;-64
2022/06/30 11:47:20;;;;;;;4.32;2.38;;;;;;;31.67;30.03;99469.91;4979756;28;20189;-60